createdAt,value
2017-06-03T00:00:33.269Z,16.52
2017-06-03T00:01:33.262Z,16.48
2017-06-03T00:02:33.586Z,16.48
2017-06-03T00:03:33.256Z,16.45
2017-06-03T00:04:33.259Z,16.51
2017-06-03T00:05:33.257Z,16.42
2017-06-03T00:06:33.252Z,16.39
2017-06-03T00:07:33.248Z,16.36
2017-06-03T00:08:33.250Z,16.32
2017-06-03T00:09:33.592Z,16.37
2017-06-03T00:10:33.583Z,16.42
2017-06-03T00:11:33.558Z,16.3
2017-06-03T00:12:33.555Z,16.37
2017-06-03T00:13:33.556Z,16.37
2017-06-03T00:14:33.229Z,16.44
2017-06-03T00:15:32.905Z,16.3
2017-06-03T00:16:33.544Z,16.37
2017-06-03T00:17:33.249Z,16.42
2017-06-03T00:18:33.237Z,16.44
2017-06-03T00:19:33.243Z,16.4
2017-06-03T00:20:33.212Z,16.44
2017-06-03T00:21:33.209Z,16.37
2017-06-03T00:22:33.232Z,16.39
2017-06-03T00:23:33.531Z,16.47
2017-06-03T00:24:33.228Z,16.49
2017-06-03T00:25:32.903Z,16.49
2017-06-03T00:26:33.198Z,16.49
2017-06-03T00:27:33.195Z,16.39
2017-06-03T00:28:33.530Z,16.49
2017-06-03T00:29:33.519Z,16.51
2017-06-03T00:30:33.195Z,16.37
2017-06-03T00:31:33.186Z,16.4
2017-06-03T00:32:33.502Z,16.44
2017-06-03T00:33:33.219Z,16.44
2017-06-03T00:34:33.177Z,16.44
2017-06-03T00:35:33.203Z,16.52
2017-06-03T00:36:33.192Z,16.47
2017-06-03T00:37:33.171Z,16.48
2017-06-03T00:38:33.482Z,16.45
2017-06-03T00:39:33.480Z,16.44
2017-06-03T00:40:33.476Z,16.47
2017-06-03T00:41:33.161Z,16.52
2017-06-03T00:42:33.153Z,16.52
2017-06-03T00:43:33.477Z,16.57
2017-06-03T00:44:33.144Z,16.55
2017-06-03T00:45:33.481Z,16.57
2017-06-03T00:46:33.494Z,16.59
2017-06-03T00:47:33.136Z,16.59
2017-06-03T00:48:33.132Z,16.62
2017-06-03T00:49:33.153Z,16.65
2017-06-03T00:50:33.447Z,16.73
2017-06-03T00:51:33.452Z,16.69
2017-06-03T00:52:33.122Z,16.67
2017-06-03T00:53:32.796Z,16.73
2017-06-03T00:54:33.450Z,16.72
2017-06-03T00:55:33.439Z,16.73
2017-06-03T00:56:33.435Z,16.82
2017-06-03T00:57:33.120Z,16.85
2017-06-03T00:58:33.110Z,16.82
2017-06-03T00:59:33.424Z,16.77
2017-06-03T01:00:33.101Z,16.82
2017-06-03T01:01:33.434Z,16.81
2017-06-03T01:02:33.102Z,16.81
2017-06-03T01:03:33.108Z,16.8
2017-06-03T01:04:33.099Z,16.74
2017-06-03T01:05:33.086Z,16.82
2017-06-03T01:06:33.410Z,16.73
2017-06-03T01:07:33.104Z,16.77
2017-06-03T01:08:33.077Z,16.77
2017-06-03T01:09:33.079Z,16.69
2017-06-03T01:10:33.088Z,16.72
2017-06-03T01:11:33.073Z,16.69
2017-06-03T01:12:33.405Z,16.67
2017-06-03T01:13:32.758Z,16.69
2017-06-03T01:14:33.067Z,16.67
2017-06-03T01:15:33.059Z,16.59
2017-06-03T01:16:33.384Z,16.66
2017-06-03T01:17:33.377Z,16.59
2017-06-03T01:18:33.052Z,16.59
2017-06-03T01:19:33.368Z,16.59
2017-06-03T01:20:33.387Z,16.58
2017-06-03T01:21:33.378Z,16.59
2017-06-03T01:22:32.716Z,16.62
2017-06-03T01:23:33.038Z,16.59
2017-06-03T01:24:33.033Z,16.49
2017-06-03T01:25:33.033Z,16.63
2017-06-03T01:26:33.034Z,16.49
2017-06-03T01:27:33.027Z,16.52
2017-06-03T01:28:33.343Z,16.47
2017-06-03T01:29:33.018Z,16.42
2017-06-03T01:30:33.344Z,16.48
2017-06-03T01:31:33.013Z,16.52
2017-06-03T01:32:32.687Z,16.51
2017-06-03T01:33:33.329Z,16.51
2017-06-03T01:34:33.356Z,16.48
2017-06-03T01:35:33.007Z,16.51
2017-06-03T01:36:33.322Z,16.48
2017-06-03T01:37:33.325Z,16.55
2017-06-03T01:38:33.331Z,16.52
2017-06-03T01:39:32.989Z,16.44
2017-06-03T01:40:32.994Z,16.37
2017-06-03T01:41:32.663Z,16.48
2017-06-03T01:42:32.659Z,16.45
2017-06-03T01:43:33.301Z,16.36
2017-06-03T01:44:33.296Z,16.39
2017-06-03T01:45:32.972Z,16.44
2017-06-03T01:46:32.662Z,16.44
2017-06-03T01:47:33.287Z,16.4
2017-06-03T01:48:33.284Z,16.39
2017-06-03T01:49:32.962Z,16.37
2017-06-03T01:50:33.299Z,16.44
2017-06-03T01:51:32.955Z,16.42
2017-06-03T01:52:33.292Z,16.39
2017-06-03T01:53:32.945Z,16.44
2017-06-03T01:54:33.265Z,16.36
2017-06-03T01:55:32.942Z,16.44
2017-06-03T01:56:33.275Z,16.32
2017-06-03T01:57:32.955Z,16.3
2017-06-03T01:58:32.948Z,16.27
2017-06-03T01:59:32.928Z,16.33
2017-06-03T02:00:33.263Z,16.29
2017-06-03T02:01:32.931Z,16.22
2017-06-03T02:02:33.253Z,16.29
2017-06-03T02:03:32.915Z,16.3
2017-06-03T02:04:33.243Z,16.26
2017-06-03T02:05:32.910Z,16.17
2017-06-03T02:06:32.584Z,16.18
2017-06-03T02:07:32.908Z,16.18
2017-06-03T02:08:33.236Z,16.02
2017-06-03T02:09:32.943Z,16.07
2017-06-03T02:10:33.265Z,16.07
2017-06-03T02:11:33.212Z,16.07
2017-06-03T02:12:32.887Z,16.1
2017-06-03T02:13:32.886Z,16.07
2017-06-03T02:14:33.198Z,16.04
2017-06-03T02:15:32.897Z,16.02
2017-06-03T02:16:33.216Z,16.04
2017-06-03T02:17:33.193Z,16.06
2017-06-03T02:18:33.186Z,16.06
2017-06-03T02:19:33.189Z,15.98
2017-06-03T02:20:33.180Z,15.99
2017-06-03T02:21:33.203Z,15.99
2017-06-03T02:22:33.175Z,16.04
2017-06-03T02:23:32.541Z,15.99
2017-06-03T02:24:32.526Z,16.07
2017-06-03T02:25:33.163Z,16.06
2017-06-03T02:26:32.851Z,16.08
2017-06-03T02:27:32.517Z,15.96
2017-06-03T02:28:32.842Z,16.08
2017-06-03T02:29:33.169Z,16.07
2017-06-03T02:30:32.833Z,16.11
2017-06-03T02:31:33.146Z,16.11
2017-06-03T02:32:32.888Z,16.08
2017-06-03T02:33:32.818Z,16.16
2017-06-03T02:34:32.813Z,16.16
2017-06-03T02:35:32.505Z,16.1
2017-06-03T02:36:32.805Z,16.13
2017-06-03T02:37:33.146Z,16.1
2017-06-03T02:38:33.120Z,16.13
2017-06-03T02:39:32.478Z,16.08
2017-06-03T02:40:32.881Z,16.11
2017-06-03T02:41:32.789Z,16.18
2017-06-03T02:42:32.791Z,16.21
2017-06-03T02:43:33.104Z,16.25
2017-06-03T02:44:33.100Z,16.13
2017-06-03T02:45:33.098Z,16.11
2017-06-03T02:46:33.112Z,16.3
2017-06-03T02:47:33.120Z,16.11
2017-06-03T02:48:32.777Z,16.26
2017-06-03T02:49:33.094Z,16.26
2017-06-03T02:50:33.098Z,16.21
2017-06-03T02:51:33.097Z,16.25
2017-06-03T02:52:32.754Z,16.22
2017-06-03T02:53:32.778Z,16.27
2017-06-03T02:54:32.769Z,16.25
2017-06-03T02:55:33.086Z,16.26
2017-06-03T02:56:33.062Z,16.29
2017-06-03T02:57:33.074Z,16.27
2017-06-03T02:58:32.731Z,16.29
2017-06-03T02:59:32.730Z,16.16
2017-06-03T03:00:32.730Z,16.26
2017-06-03T03:01:33.057Z,16.3
2017-06-03T03:02:33.091Z,16.25
2017-06-03T03:03:32.716Z,16.25
2017-06-03T03:04:33.034Z,16.25
2017-06-03T03:05:33.031Z,16.3
2017-06-03T03:06:32.747Z,16.21
2017-06-03T03:07:33.024Z,16.21
2017-06-03T03:08:32.699Z,16.11
2017-06-03T03:09:32.701Z,16.25
2017-06-03T03:10:33.014Z,16.17
2017-06-03T03:11:33.028Z,16.26
2017-06-03T03:12:33.018Z,16.21
2017-06-03T03:13:32.682Z,16.11
2017-06-03T03:14:33.004Z,16.11
2017-06-03T03:15:32.678Z,16.21
2017-06-03T03:16:33.016Z,16.14
2017-06-03T03:17:33.012Z,16.1
2017-06-03T03:18:33.016Z,16.13
2017-06-03T03:19:32.665Z,16.14
2017-06-03T03:20:32.999Z,16.13
2017-06-03T03:21:32.661Z,16.17
2017-06-03T03:22:32.672Z,16.17
2017-06-03T03:23:32.654Z,16.21
2017-06-03T03:24:32.646Z,16.22
2017-06-03T03:25:32.659Z,16.17
2017-06-03T03:26:32.968Z,16.21
2017-06-03T03:27:32.979Z,16.25
2017-06-03T03:28:32.972Z,16.16
2017-06-03T03:29:32.970Z,16.11
2017-06-03T03:30:32.659Z,16.22
2017-06-03T03:31:32.645Z,16.22
2017-06-03T03:32:32.945Z,16.27
2017-06-03T03:33:32.294Z,16.14
2017-06-03T03:34:32.613Z,16.16
2017-06-03T03:35:32.636Z,16.26
2017-06-03T03:36:32.607Z,16.29
2017-06-03T03:37:32.938Z,16.26
2017-06-03T03:38:32.603Z,16.26
2017-06-03T03:39:32.597Z,16.27
2017-06-03T03:40:32.658Z,16.34
2017-06-03T03:41:32.912Z,16.25
2017-06-03T03:42:32.601Z,16.33
2017-06-03T03:43:32.582Z,16.27
2017-06-03T03:44:32.582Z,16.25
2017-06-03T03:45:32.902Z,16.26
2017-06-03T03:46:32.655Z,16.26
2017-06-03T03:47:32.568Z,16.29
2017-06-03T03:48:32.565Z,16.27
2017-06-03T03:49:32.881Z,16.27
2017-06-03T03:50:32.576Z,16.32
2017-06-03T03:51:32.910Z,16.22
2017-06-03T03:52:32.554Z,16.33
2017-06-03T03:53:32.558Z,16.34
2017-06-03T03:54:32.867Z,16.22
2017-06-03T03:55:32.871Z,16.3
2017-06-03T03:56:32.879Z,16.39
2017-06-03T03:57:32.865Z,16.33
2017-06-03T03:58:32.854Z,16.39
2017-06-03T03:59:32.853Z,16.42
2017-06-03T04:00:32.851Z,16.49
2017-06-03T04:01:32.874Z,16.48
2017-06-03T04:02:32.539Z,16.62
2017-06-03T04:03:32.861Z,16.63
2017-06-03T04:04:32.194Z,16.7
2017-06-03T04:05:32.832Z,16.69
2017-06-03T04:06:32.507Z,16.76
2017-06-03T04:07:32.502Z,16.84
2017-06-03T04:08:32.528Z,16.85
2017-06-03T04:09:32.822Z,16.84
2017-06-03T04:10:32.513Z,16.95
2017-06-03T04:11:32.873Z,16.97
2017-06-03T04:12:32.809Z,16.97
2017-06-03T04:13:32.496Z,16.95
2017-06-03T04:14:32.484Z,17
2017-06-03T04:15:32.484Z,16.95
2017-06-03T04:16:32.502Z,17.09
2017-06-03T04:17:32.795Z,17.09
2017-06-03T04:18:32.805Z,17.07
2017-06-03T04:19:32.797Z,17.07
2017-06-03T04:20:32.465Z,17.12
2017-06-03T04:21:32.789Z,17.09
2017-06-03T04:22:32.461Z,17.03
2017-06-03T04:23:32.459Z,17.07
2017-06-03T04:24:32.783Z,17.05
2017-06-03T04:25:32.450Z,17.13
2017-06-03T04:26:32.448Z,17.15
2017-06-03T04:27:32.795Z,17.1
2017-06-03T04:28:32.445Z,17.17
2017-06-03T04:29:32.120Z,17.21
2017-06-03T04:30:32.779Z,17.25
2017-06-03T04:31:32.444Z,17.31
2017-06-03T04:32:32.762Z,17.28
2017-06-03T04:33:32.433Z,17.46
2017-06-03T04:34:32.429Z,17.49
2017-06-03T04:35:32.809Z,17.54
2017-06-03T04:36:32.454Z,17.63
2017-06-03T04:37:32.762Z,17.54
2017-06-03T04:38:32.419Z,17.58
2017-06-03T04:39:32.119Z,17.58
2017-06-03T04:40:32.428Z,17.62
2017-06-03T04:41:32.597Z,17.65
2017-06-03T04:42:32.731Z,17.71
2017-06-03T04:43:32.412Z,17.66
2017-06-03T04:44:32.403Z,17.73
2017-06-03T04:45:32.733Z,17.65
2017-06-03T04:46:32.402Z,17.65
2017-06-03T04:47:32.394Z,17.68
2017-06-03T04:48:32.723Z,17.73
2017-06-03T04:49:32.089Z,17.66
2017-06-03T04:50:32.388Z,17.69
2017-06-03T04:51:32.390Z,17.73
2017-06-03T04:52:32.724Z,17.68
2017-06-03T04:53:32.380Z,17.69
2017-06-03T04:54:32.383Z,17.68
2017-06-03T04:55:32.732Z,17.73
2017-06-03T04:56:32.694Z,17.73
2017-06-03T04:57:32.374Z,17.74
2017-06-03T04:58:32.374Z,17.84
2017-06-03T04:59:32.386Z,17.81
2017-06-03T05:00:32.052Z,17.81
2017-06-03T05:01:32.364Z,17.74
2017-06-03T05:02:32.038Z,17.84
2017-06-03T05:03:32.355Z,17.88
2017-06-03T05:04:32.679Z,17.87
2017-06-03T05:05:32.368Z,17.9
2017-06-03T05:06:32.351Z,17.95
2017-06-03T05:07:32.372Z,17.95
2017-06-03T05:08:32.370Z,17.99
2017-06-03T05:09:32.024Z,18.1
2017-06-03T05:10:32.343Z,18.02
2017-06-03T05:11:32.389Z,18.16
2017-06-03T05:12:32.031Z,18.19
2017-06-03T05:13:32.017Z,18.17
2017-06-03T05:14:32.343Z,18.21
2017-06-03T05:15:32.335Z,18.31
2017-06-03T05:16:32.707Z,18.31
2017-06-03T05:17:32.334Z,18.27
2017-06-03T05:18:32.325Z,18.36
2017-06-03T05:19:32.366Z,18.29
2017-06-03T05:20:32.324Z,18.32
2017-06-03T05:21:32.320Z,18.42
2017-06-03T05:22:32.321Z,18.5
2017-06-03T05:23:32.343Z,18.51
2017-06-03T05:24:32.005Z,18.63
2017-06-03T05:25:32.314Z,18.59
2017-06-03T05:26:32.635Z,18.71
2017-06-03T05:27:32.316Z,18.63
2017-06-03T05:28:32.629Z,18.61
2017-06-03T05:29:32.306Z,18.74
2017-06-03T05:30:31.986Z,18.66
2017-06-03T05:31:32.625Z,18.74
2017-06-03T05:32:32.303Z,18.79
2017-06-03T05:33:32.628Z,18.87
2017-06-03T05:34:32.315Z,18.94
2017-06-03T05:35:32.297Z,19.05
2017-06-03T05:36:32.643Z,18.96
2017-06-03T05:37:32.305Z,19.05
2017-06-03T05:38:32.619Z,19.07
2017-06-03T05:39:32.294Z,19.06
2017-06-03T05:40:32.611Z,19.12
2017-06-03T05:41:32.292Z,19.25
2017-06-03T05:42:32.301Z,19.31
2017-06-03T05:43:32.626Z,19.31
2017-06-03T05:44:32.285Z,19.35
2017-06-03T05:45:32.284Z,19.38
2017-06-03T05:46:32.628Z,19.49
2017-06-03T05:47:32.607Z,19.43
2017-06-03T05:48:32.284Z,19.56
2017-06-03T05:49:32.279Z,19.5
2017-06-03T05:50:32.614Z,19.5
2017-06-03T05:51:31.969Z,19.6
2017-06-03T05:52:32.326Z,19.6
2017-06-03T05:53:32.592Z,19.68
2017-06-03T05:54:32.598Z,19.7
2017-06-03T05:55:32.608Z,19.7
2017-06-03T05:56:32.593Z,19.85
2017-06-03T05:57:32.614Z,19.87
2017-06-03T05:58:32.271Z,19.98
2017-06-03T05:59:32.608Z,19.98
2017-06-03T06:00:32.590Z,19.93
2017-06-03T06:01:32.612Z,19.92
2017-06-03T06:02:32.605Z,19.98
2017-06-03T06:03:32.268Z,20.1
2017-06-03T06:04:32.586Z,20.07
2017-06-03T06:05:32.596Z,20.2
2017-06-03T06:06:32.280Z,20.11
2017-06-03T06:07:32.585Z,20.26
2017-06-03T06:08:32.266Z,20.29
2017-06-03T06:09:32.275Z,20.25
2017-06-03T06:10:32.592Z,20.32
2017-06-03T06:11:32.607Z,20.35
2017-06-03T06:12:32.591Z,20.4
2017-06-03T06:13:32.582Z,20.51
2017-06-03T06:14:32.290Z,20.57
2017-06-03T06:15:32.600Z,20.74
2017-06-03T06:16:32.258Z,20.76
2017-06-03T06:17:32.269Z,20.83
2017-06-03T06:18:32.582Z,20.9
2017-06-03T06:19:32.592Z,21.09
2017-06-03T06:20:32.585Z,21.06
2017-06-03T06:21:32.582Z,21.13
2017-06-03T06:22:31.942Z,21.28
2017-06-03T06:23:32.262Z,21.25
2017-06-03T06:24:31.937Z,21.45
2017-06-03T06:25:32.262Z,21.43
2017-06-03T06:26:32.259Z,21.62
2017-06-03T06:27:32.258Z,21.66
2017-06-03T06:28:32.580Z,21.77
2017-06-03T06:29:32.258Z,21.9
2017-06-03T06:30:32.262Z,21.92
2017-06-03T06:31:32.262Z,22
2017-06-03T06:32:32.593Z,22.04
2017-06-03T06:33:32.326Z,22.05
2017-06-03T06:34:32.261Z,22.09
2017-06-03T06:35:32.263Z,22.15
2017-06-03T06:36:32.608Z,22.24
2017-06-03T06:37:32.585Z,22.36
2017-06-03T06:38:32.269Z,22.54
2017-06-03T06:39:32.618Z,22.81
2017-06-03T06:40:32.267Z,23.16
2017-06-03T06:41:32.587Z,23.64
2017-06-03T06:42:32.594Z,24.17
2017-06-03T06:43:32.604Z,24.59
2017-06-03T06:44:32.609Z,25.15
2017-06-03T06:45:32.591Z,25.42
2017-06-03T06:46:31.960Z,25.88
2017-06-03T06:47:32.602Z,26.31
2017-06-03T06:48:32.599Z,26.81
2017-06-03T06:49:32.605Z,27.19
2017-06-03T06:50:32.287Z,27.65
2017-06-03T06:51:32.611Z,28.02
2017-06-03T06:52:32.341Z,28.26
2017-06-03T06:53:32.615Z,28.42
2017-06-03T06:54:32.630Z,28.54
2017-06-03T06:55:32.308Z,28.55
2017-06-03T06:56:32.647Z,28.76
2017-06-03T06:57:32.666Z,28.92
2017-06-03T06:58:32.637Z,29.3
2017-06-03T06:59:32.664Z,29.58
2017-06-03T07:00:32.666Z,29.85
2017-06-03T07:01:32.656Z,30.21
2017-06-03T07:02:32.013Z,30.57
2017-06-03T07:03:32.689Z,31
2017-06-03T07:04:32.023Z,31.41
2017-06-03T07:05:32.706Z,31.6
2017-06-03T07:06:32.357Z,31.8
2017-06-03T07:07:32.714Z,32.03
2017-06-03T07:08:32.711Z,32.39
2017-06-03T07:09:32.739Z,32.76
2017-06-03T07:10:32.414Z,33.03
2017-06-03T07:11:32.729Z,33.26
2017-06-03T07:12:32.402Z,33.31
2017-06-03T07:13:32.407Z,33.39
2017-06-03T07:14:32.414Z,33.66
2017-06-03T07:15:32.421Z,33.87
2017-06-03T07:16:32.762Z,33.55
2017-06-03T07:17:32.775Z,32.91
2017-06-03T07:18:32.126Z,32.38
2017-06-03T07:19:32.788Z,31.62
2017-06-03T07:20:32.482Z,30.86
2017-06-03T07:21:32.491Z,30.25
2017-06-03T07:22:32.839Z,29.7
2017-06-03T07:23:32.504Z,29.18
2017-06-03T07:24:32.510Z,28.67
2017-06-03T07:25:32.846Z,28.26
2017-06-03T07:26:32.840Z,27.86
2017-06-03T07:27:32.194Z,27.62
2017-06-03T07:28:32.539Z,27.33
2017-06-03T07:29:32.529Z,27.16
2017-06-03T07:30:32.215Z,26.86
2017-06-03T07:31:32.243Z,26.67
2017-06-03T07:32:32.552Z,26.5
2017-06-03T07:33:32.872Z,26.38
2017-06-03T07:34:32.571Z,26.17
2017-06-03T07:35:32.888Z,26.11
2017-06-03T07:36:32.583Z,26.31
2017-06-03T07:37:32.919Z,26.3
2017-06-03T07:38:32.914Z,26.45
2017-06-03T07:39:32.266Z,26.49
2017-06-03T07:40:32.914Z,26.68
2017-06-03T07:41:32.614Z,27.08
2017-06-03T07:42:32.982Z,27.51
2017-06-03T07:43:32.610Z,27.53
2017-06-03T07:44:32.631Z,27.86
2017-06-03T07:45:32.623Z,28.08
2017-06-03T07:46:32.629Z,28.02
2017-06-03T07:47:32.955Z,28.12
2017-06-03T07:48:32.969Z,28.18
2017-06-03T07:49:33.292Z,28.23
2017-06-03T07:50:32.668Z,28.16
2017-06-03T07:51:32.676Z,27.96
2017-06-03T07:52:32.705Z,27.86
2017-06-03T07:53:32.665Z,27.9
2017-06-03T07:54:32.671Z,27.69
2017-06-03T07:55:32.680Z,27.69
2017-06-03T07:56:33.011Z,27.61
2017-06-03T07:57:32.688Z,27.49
2017-06-03T07:58:33.016Z,27.46
2017-06-03T07:59:33.029Z,27.61
2017-06-03T08:00:32.705Z,27.81
2017-06-03T08:01:33.040Z,28.26
2017-06-03T08:02:32.714Z,28.86
2017-06-03T08:03:33.063Z,29.17
2017-06-03T08:04:32.405Z,29.08
2017-06-03T08:05:33.056Z,28.88
2017-06-03T08:06:32.754Z,28.54
2017-06-03T08:07:33.064Z,28.35
2017-06-03T08:08:32.769Z,28.09
2017-06-03T08:09:33.078Z,27.68
2017-06-03T08:10:33.084Z,27.34
2017-06-03T08:11:32.785Z,27.01
2017-06-03T08:12:32.770Z,26.76
2017-06-03T08:13:33.141Z,26.52
2017-06-03T08:14:33.102Z,26.19
2017-06-03T08:15:32.791Z,26
2017-06-03T08:16:33.111Z,25.84
2017-06-03T08:17:33.127Z,25.66
2017-06-03T08:18:32.818Z,25.48
2017-06-03T08:19:32.802Z,25.37
2017-06-03T08:20:32.827Z,25.32
2017-06-03T08:21:32.818Z,25.2
2017-06-03T08:22:33.141Z,25.2
2017-06-03T08:23:34.160Z,25.22
2017-06-03T08:24:32.826Z,25.09
2017-06-03T08:25:32.832Z,25.15
2017-06-03T08:26:33.161Z,25.22
2017-06-03T08:27:32.525Z,25.26
2017-06-03T08:28:33.193Z,25.29
2017-06-03T08:29:32.864Z,25.24
2017-06-03T08:30:33.175Z,25.26
2017-06-03T08:31:32.857Z,25.34
2017-06-03T08:32:33.189Z,25.34
2017-06-03T08:33:32.864Z,25.49
2017-06-03T08:34:32.868Z,25.57
2017-06-03T08:35:33.199Z,25.81
2017-06-03T08:36:33.197Z,25.99
2017-06-03T08:37:32.885Z,26.2
2017-06-03T08:38:32.885Z,26.38
2017-06-03T08:39:32.902Z,26.63
2017-06-03T08:40:32.570Z,26.67
2017-06-03T08:41:32.895Z,26.87
2017-06-03T08:42:33.224Z,26.96
2017-06-03T08:43:33.245Z,26.9
2017-06-03T08:44:32.594Z,27.05
2017-06-03T08:45:32.923Z,27.09
2017-06-03T08:46:33.249Z,27.23
2017-06-03T08:47:33.251Z,27.05
2017-06-03T08:48:32.930Z,27.11
2017-06-03T08:49:33.273Z,27.05
2017-06-03T08:50:32.937Z,26.93
2017-06-03T08:51:32.946Z,26.9
2017-06-03T08:52:33.268Z,26.87
2017-06-03T08:53:33.272Z,26.78
2017-06-03T08:54:33.302Z,26.79
2017-06-03T08:55:33.282Z,26.74
2017-06-03T08:56:32.987Z,26.82
2017-06-03T08:57:32.973Z,26.76
2017-06-03T08:58:33.320Z,26.72
2017-06-03T08:59:33.334Z,26.59
2017-06-03T09:00:33.317Z,26.63
2017-06-03T09:01:33.328Z,26.61
2017-06-03T09:02:33.324Z,26.63
2017-06-03T09:03:32.999Z,26.67
2017-06-03T09:04:32.684Z,26.57
2017-06-03T09:05:33.009Z,26.59
2017-06-03T09:06:32.693Z,26.52
2017-06-03T09:07:33.017Z,26.52
2017-06-03T09:08:33.347Z,26.5
2017-06-03T09:09:33.352Z,26.35
2017-06-03T09:10:33.355Z,26.42
2017-06-03T09:11:33.361Z,26.32
2017-06-03T09:12:33.064Z,26.26
2017-06-03T09:13:33.372Z,26.19
2017-06-03T09:14:33.394Z,26.26
2017-06-03T09:15:33.393Z,26.34
2017-06-03T09:16:33.387Z,26.37
2017-06-03T09:17:33.066Z,26.44
2017-06-03T09:18:33.397Z,26.47
2017-06-03T09:19:33.430Z,26.6
2017-06-03T09:20:33.093Z,26.78
2017-06-03T09:21:33.089Z,26.75
2017-06-03T09:22:33.089Z,26.82
2017-06-03T09:23:33.106Z,26.9
2017-06-03T09:24:33.096Z,26.89
2017-06-03T09:25:33.101Z,26.81
2017-06-03T09:26:33.428Z,26.71
2017-06-03T09:27:33.442Z,26.76
2017-06-03T09:28:32.793Z,26.63
2017-06-03T09:29:33.119Z,26.57
2017-06-03T09:30:33.145Z,26.52
2017-06-03T09:31:33.475Z,26.63
2017-06-03T09:32:33.460Z,26.5
2017-06-03T09:33:33.137Z,26.52
2017-06-03T09:34:33.493Z,26.57
2017-06-03T09:35:33.172Z,26.71
2017-06-03T09:36:33.490Z,26.82
2017-06-03T09:37:32.880Z,26.79
2017-06-03T09:38:33.479Z,26.87
2017-06-03T09:39:33.164Z,26.81
2017-06-03T09:40:33.174Z,26.93
2017-06-03T09:41:33.178Z,26.99
2017-06-03T09:42:32.874Z,27.12
2017-06-03T09:43:33.507Z,27.15
2017-06-03T09:44:33.189Z,27.31
2017-06-03T09:45:33.197Z,27.36
2017-06-03T09:46:32.879Z,27.42
2017-06-03T09:47:33.527Z,27.51
2017-06-03T09:48:33.544Z,27.69
2017-06-03T09:49:33.544Z,27.8
2017-06-03T09:50:33.558Z,27.8
2017-06-03T09:51:33.579Z,27.71
2017-06-03T09:52:33.247Z,27.76
2017-06-03T09:53:33.589Z,27.93
2017-06-03T09:54:33.562Z,27.86
2017-06-03T09:55:33.248Z,27.96
2017-06-03T09:56:33.252Z,28.06
2017-06-03T09:57:33.583Z,28.11
2017-06-03T09:58:33.583Z,28.16
2017-06-03T09:59:33.265Z,28.18
2017-06-03T10:00:33.279Z,28.17
2017-06-03T10:01:33.610Z,28.26
2017-06-03T10:02:33.292Z,28.21
2017-06-03T10:03:33.620Z,28.16
2017-06-03T10:04:33.613Z,28.17
2017-06-03T10:05:33.618Z,28.24
2017-06-03T10:06:33.321Z,28.23
2017-06-03T10:07:32.991Z,28.26
2017-06-03T10:08:33.316Z,28.16
2017-06-03T10:09:33.337Z,28.17
2017-06-03T10:10:33.675Z,28.14
2017-06-03T10:11:33.331Z,28.14
2017-06-03T10:12:33.660Z,28.11
2017-06-03T10:13:33.699Z,28.09
2017-06-03T10:14:33.023Z,28.02
2017-06-03T10:15:33.685Z,27.99
2017-06-03T10:16:33.695Z,28.03
2017-06-03T10:17:33.358Z,27.98
2017-06-03T10:18:33.693Z,27.98
2017-06-03T10:19:33.385Z,28.01
2017-06-03T10:20:33.713Z,28.03
2017-06-03T10:21:33.701Z,28.05
2017-06-03T10:22:33.703Z,27.99
2017-06-03T10:23:33.765Z,28.14
2017-06-03T10:24:33.405Z,28.27
2017-06-03T10:25:33.078Z,28.09
2017-06-03T10:26:33.737Z,28.18
2017-06-03T10:27:33.728Z,28.12
2017-06-03T10:28:33.414Z,28.11
2017-06-03T10:29:33.415Z,28.06
2017-06-03T10:30:33.126Z,28.03
2017-06-03T10:31:33.750Z,27.89
2017-06-03T10:32:33.755Z,27.86
2017-06-03T10:33:33.762Z,27.94
2017-06-03T10:34:33.766Z,27.98
2017-06-03T10:35:33.769Z,27.98
2017-06-03T10:36:33.452Z,28.05
2017-06-03T10:37:33.468Z,28.09
2017-06-03T10:38:33.786Z,28.18
2017-06-03T10:39:33.790Z,28.12
2017-06-03T10:40:33.474Z,28.21
2017-06-03T10:41:33.480Z,28.17
2017-06-03T10:42:33.806Z,28.23
2017-06-03T10:43:36.220Z,28.24
2017-06-03T10:44:33.844Z,28.38
2017-06-03T10:45:33.828Z,28.48
2017-06-03T10:46:33.189Z,28.6
2017-06-03T10:47:33.835Z,28.65
2017-06-03T10:48:33.534Z,28.61
2017-06-03T10:49:33.862Z,28.64
2017-06-03T10:50:33.532Z,28.72
2017-06-03T10:51:33.219Z,28.65
2017-06-03T10:52:33.867Z,28.7
2017-06-03T10:53:33.229Z,28.55
2017-06-03T10:54:33.552Z,28.6
2017-06-03T10:55:33.239Z,28.46
2017-06-03T10:56:33.899Z,28.49
2017-06-03T10:57:33.567Z,28.43
2017-06-03T10:58:33.577Z,28.36
2017-06-03T10:59:33.582Z,28.27
2017-06-03T11:00:33.270Z,28.2
2017-06-03T11:01:33.597Z,28.28
2017-06-03T11:02:33.918Z,28.31
2017-06-03T11:03:33.970Z,28.43
2017-06-03T11:04:33.606Z,28.51
2017-06-03T11:05:33.308Z,28.6
2017-06-03T11:06:33.940Z,28.64
2017-06-03T11:07:33.947Z,28.76
2017-06-03T11:08:33.969Z,28.75
2017-06-03T11:09:33.637Z,28.8
2017-06-03T11:10:33.958Z,28.92
2017-06-03T11:11:33.649Z,28.95
2017-06-03T11:12:33.334Z,28.91
2017-06-03T11:13:34.002Z,29.06
2017-06-03T11:14:33.339Z,29.3
2017-06-03T11:15:33.681Z,29.32
2017-06-03T11:16:33.352Z,29.3
2017-06-03T11:17:34.018Z,29.11
2017-06-03T11:18:33.691Z,29.06
2017-06-03T11:19:33.701Z,28.92
2017-06-03T11:20:34.026Z,28.83
2017-06-03T11:21:33.723Z,28.92
2017-06-03T11:22:33.719Z,28.88
2017-06-03T11:23:34.057Z,28.86
2017-06-03T11:24:33.748Z,28.78
2017-06-03T11:25:34.048Z,28.73
2017-06-03T11:26:33.773Z,28.85
2017-06-03T11:27:34.084Z,29.02
2017-06-03T11:28:34.091Z,29.05
2017-06-03T11:29:34.079Z,29.13
2017-06-03T11:30:33.778Z,29.29
2017-06-03T11:31:34.087Z,29.2
2017-06-03T11:32:33.445Z,29.32
2017-06-03T11:33:34.115Z,29.4
2017-06-03T11:34:34.121Z,29.35
2017-06-03T11:35:33.515Z,29.42
2017-06-03T11:36:33.801Z,29.43
2017-06-03T11:37:33.835Z,29.42
2017-06-03T11:38:34.136Z,29.43
2017-06-03T11:39:33.812Z,29.42
2017-06-03T11:40:34.167Z,29.42
2017-06-03T11:41:33.516Z,29.45
2017-06-03T11:42:34.179Z,29.52
2017-06-03T11:43:33.839Z,29.43
2017-06-03T11:44:34.162Z,29.36
2017-06-03T11:45:34.173Z,29.33
2017-06-03T11:46:33.860Z,29.4
2017-06-03T11:47:33.918Z,29.28
2017-06-03T11:48:33.909Z,29.18
2017-06-03T11:49:33.875Z,29.06
2017-06-03T11:50:34.203Z,28.85
2017-06-03T11:51:33.888Z,28.82
2017-06-03T11:52:33.594Z,28.9
2017-06-03T11:53:34.262Z,28.86
2017-06-03T11:54:34.235Z,28.9
2017-06-03T11:55:34.238Z,29.01
2017-06-03T11:56:33.920Z,29.17
2017-06-03T11:57:34.261Z,29.3
2017-06-03T11:58:33.931Z,29.15
2017-06-03T11:59:33.619Z,29.23
2017-06-03T12:00:33.964Z,29.17
2017-06-03T12:01:34.270Z,29.01
2017-06-03T12:02:33.634Z,28.78
2017-06-03T12:03:33.642Z,28.67
2017-06-03T12:04:34.000Z,28.43
2017-06-03T12:05:34.319Z,28.27
2017-06-03T12:06:34.325Z,28.14
2017-06-03T12:07:33.667Z,27.99
2017-06-03T12:08:33.675Z,27.86
2017-06-03T12:09:34.337Z,27.71
2017-06-03T12:10:34.329Z,27.52
2017-06-03T12:11:34.336Z,27.42
2017-06-03T12:12:34.024Z,27.36
2017-06-03T12:13:34.345Z,27.24
2017-06-03T12:14:34.030Z,27.13
2017-06-03T12:15:34.058Z,26.97
2017-06-03T12:16:34.078Z,26.9
2017-06-03T12:17:34.387Z,26.78
2017-06-03T12:18:34.091Z,26.63
2017-06-03T12:19:34.060Z,26.56
2017-06-03T12:20:34.062Z,26.49
2017-06-03T12:21:34.395Z,26.38
2017-06-03T12:22:34.071Z,26.41
2017-06-03T12:23:34.079Z,26.31
2017-06-03T12:24:34.410Z,26.16
2017-06-03T12:25:34.411Z,26.11
2017-06-03T12:26:34.426Z,26.11
2017-06-03T12:27:34.441Z,25.93
2017-06-03T12:28:34.110Z,25.96
2017-06-03T12:29:34.430Z,25.93
2017-06-03T12:30:34.438Z,25.81
2017-06-03T12:31:34.119Z,25.86
2017-06-03T12:32:34.120Z,25.89
2017-06-03T12:33:34.480Z,25.91
2017-06-03T12:34:34.455Z,26.01
2017-06-03T12:35:33.819Z,26.11
2017-06-03T12:36:34.142Z,26.27
2017-06-03T12:37:34.466Z,26.37
2017-06-03T12:38:34.148Z,26.52
2017-06-03T12:39:34.483Z,26.68
2017-06-03T12:40:33.835Z,26.86
2017-06-03T12:41:33.840Z,27.12
2017-06-03T12:42:34.166Z,27.37
2017-06-03T12:43:34.178Z,27.43
2017-06-03T12:44:34.513Z,27.62
2017-06-03T12:45:34.518Z,27.8
2017-06-03T12:46:34.185Z,27.81
2017-06-03T12:47:34.199Z,27.99
2017-06-03T12:48:34.195Z,28.18
2017-06-03T12:49:34.202Z,28.3
2017-06-03T12:50:34.527Z,28.55
2017-06-03T12:51:33.894Z,28.63
2017-06-03T12:52:34.541Z,28.79
2017-06-03T12:53:33.898Z,28.9
2017-06-03T12:54:34.260Z,28.85
2017-06-03T12:55:34.229Z,28.95